createdAt,value
2023-09-06T00:00:22.811Z,100.00
2023-09-06T00:03:24.824Z,100.00
2023-09-06T00:06:24.747Z,100.00
2023-09-06T00:09:24.778Z,100.00
2023-09-06T00:12:24.776Z,100.00
2023-09-06T00:15:25.780Z,100.00
2023-09-06T00:18:25.960Z,100.00
2023-09-06T00:21:26.862Z,100.00
2023-09-06T00:24:27.873Z,100.00
2023-09-06T00:27:27.796Z,100.00
2023-09-06T00:30:27.787Z,100.00
2023-09-06T00:33:28.836Z,100.00
2023-09-06T00:36:28.817Z,100.00
2023-09-06T00:39:28.860Z,100.00
2023-09-06T00:42:31.876Z,100.00
2023-09-06T00:45:33.832Z,100.00
2023-09-06T00:48:41.896Z,100.00
2023-09-06T00:51:42.825Z,100.00
2023-09-06T00:54:46.869Z,100.00
2023-09-06T00:57:47.866Z,100.00
2023-09-06T01:00:47.966Z,100.00
2023-09-06T01:03:47.989Z,100.00
2023-09-06T01:06:50.945Z,100.00
2023-09-06T01:09:50.919Z,100.00
2023-09-06T01:12:50.933Z,100.00
2023-09-06T01:15:53.975Z,100.00
2023-09-06T01:18:53.982Z,100.00
2023-09-06T01:22:05.992Z,100.00
2023-09-06T01:25:06.971Z,100.00
2023-09-06T01:28:06.943Z,100.00
2023-09-06T01:31:08.005Z,100.00
2023-09-06T01:34:08.004Z,100.00
2023-09-06T01:37:07.953Z,100.00
2023-09-06T01:40:08.000Z,100.00
2023-09-06T01:43:07.995Z,100.00
2023-09-06T01:46:08.028Z,100.00
2023-09-06T01:49:08.006Z,100.00
2023-09-06T01:52:09.038Z,100.00
2023-09-06T01:55:08.969Z,100.00
2023-09-06T01:58:11.044Z,100.00
2023-09-06T02:01:15.080Z,100.00
2023-09-06T02:04:15.015Z,100.00
2023-09-06T02:07:15.055Z,100.00
2023-09-06T02:10:18.035Z,100.00
2023-09-06T02:13:18.016Z,100.00
2023-09-06T02:16:19.116Z,100.00
2023-09-06T02:19:19.078Z,100.00
2023-09-06T02:22:19.073Z,100.00
2023-09-06T02:25:24.081Z,100.00
2023-09-06T02:28:25.064Z,100.00
2023-09-06T02:31:25.137Z,100.00
2023-09-06T02:34:25.077Z,100.00
2023-09-06T02:37:25.076Z,100.00
2023-09-06T02:40:25.065Z,100.00
2023-09-06T02:43:25.122Z,100.00
2023-09-06T02:46:25.123Z,100.00
2023-09-06T02:49:25.090Z,100.00
2023-09-06T02:52:43.099Z,100.00
2023-09-06T02:55:44.078Z,100.00
2023-09-06T02:58:44.350Z,100.00
2023-09-06T03:01:45.130Z,100.00
2023-09-06T03:04:48.125Z,100.00
2023-09-06T03:07:50.108Z,100.00
2023-09-06T03:10:56.130Z,100.00
2023-09-06T03:14:02.122Z,100.00
2023-09-06T03:17:02.145Z,100.00
2023-09-06T03:20:07.144Z,100.00
2023-09-06T03:23:07.149Z,100.00
2023-09-06T03:26:08.144Z,100.00
2023-09-06T03:29:08.167Z,100.00
2023-09-06T03:32:08.190Z,100.00
2023-09-06T03:35:08.190Z,100.00
2023-09-06T03:38:09.290Z,100.00
2023-09-06T03:41:09.253Z,100.00
2023-09-06T03:44:09.239Z,100.00
2023-09-06T03:47:12.300Z,100.00
2023-09-06T03:50:12.203Z,100.00
2023-09-06T03:53:12.248Z,100.00
2023-09-06T03:56:12.261Z,100.00
2023-09-06T03:59:15.214Z,100.00
2023-09-06T04:02:20.376Z,100.00
2023-09-06T04:05:21.250Z,100.00
2023-09-06T04:08:27.541Z,100.00
2023-09-06T04:11:28.279Z,100.00
2023-09-06T04:14:29.290Z,100.00
2023-09-06T04:17:29.291Z,100.00
2023-09-06T04:20:30.281Z,100.00
2023-09-06T04:23:31.271Z,100.00
2023-09-06T04:26:32.283Z,100.00
2023-09-06T04:29:32.335Z,100.00
2023-09-06T04:32:32.307Z,100.00
2023-09-06T04:35:32.330Z,100.00
2023-09-06T04:38:34.436Z,100.00
2023-09-06T04:41:38.325Z,100.00
2023-09-06T04:44:38.311Z,100.00
2023-09-06T04:47:39.426Z,100.00
2023-09-06T04:50:40.396Z,100.00
2023-09-06T04:53:41.380Z,100.00
2023-09-06T04:56:49.389Z,100.00
2023-09-06T04:59:50.411Z,100.00
2023-09-06T05:02:50.439Z,100.00
2023-09-06T05:05:50.537Z,100.00
2023-09-06T05:08:51.396Z,100.00
2023-09-06T05:11:52.392Z,100.00
2023-09-06T05:14:52.414Z,100.00
2023-09-06T05:17:54.470Z,100.00
2023-09-06T05:20:54.401Z,100.00
2023-09-06T05:23:54.420Z,100.00
2023-09-06T05:26:54.441Z,100.00
2023-09-06T05:29:54.448Z,100.00
2023-09-06T05:32:54.483Z,100.00
2023-09-06T05:35:54.433Z,100.00
2023-09-06T05:38:54.505Z,100.00
2023-09-06T05:41:54.449Z,100.00
2023-09-06T05:44:54.479Z,100.00
2023-09-06T05:47:54.570Z,100.00
2023-09-06T05:50:54.453Z,100.00
2023-09-06T05:53:54.504Z,100.00
2023-09-06T05:56:54.476Z,100.00
2023-09-06T05:59:54.500Z,100.00
2023-09-06T06:03:01.515Z,100.00
2023-09-06T06:06:02.527Z,100.00
2023-09-06T06:09:02.513Z,100.00
2023-09-06T06:12:02.524Z,100.00
2023-09-06T06:15:07.534Z,100.00
2023-09-06T06:18:07.567Z,100.00
2023-09-06T06:21:07.568Z,100.00
2023-09-06T06:24:07.554Z,100.00
2023-09-06T06:27:07.705Z,100.00
2023-09-06T06:30:08.657Z,100.00
2023-09-06T06:33:09.024Z,100.00
2023-09-06T06:36:09.553Z,100.00
2023-09-06T06:39:09.581Z,100.00
2023-09-06T06:42:09.575Z,100.00
2023-09-06T06:45:14.264Z,100.00
2023-09-06T06:48:15.663Z,100.00
2023-09-06T06:51:15.594Z,100.00
2023-09-06T06:54:22.607Z,100.00
2023-09-06T06:57:22.617Z,100.00
2023-09-06T07:00:24.613Z,100.00
2023-09-06T07:03:24.745Z,100.00
2023-09-06T07:06:24.651Z,100.00
2023-09-06T07:09:24.611Z,100.00
2023-09-06T07:12:24.664Z,100.00
2023-09-06T07:15:24.704Z,100.00
2023-09-06T07:18:24.689Z,100.00
2023-09-06T07:21:25.686Z,100.00
2023-09-06T07:24:25.753Z,100.00
2023-09-06T07:27:25.668Z,100.00
2023-09-06T07:30:25.711Z,100.00
2023-09-06T07:33:25.703Z,100.00
2023-09-06T07:36:25.725Z,100.00
2023-09-06T07:39:25.698Z,100.00
2023-09-06T07:42:25.788Z,100.00
2023-09-06T07:45:25.710Z,100.00
2023-09-06T07:48:25.928Z,100.00
2023-09-06T07:51:26.009Z,100.00
2023-09-06T07:54:25.730Z,100.00
2023-09-06T07:57:26.756Z,100.00
2023-09-06T08:00:27.741Z,100.00
2023-09-06T08:03:27.848Z,100.00
2023-09-06T08:06:28.853Z,100.00
2023-09-06T08:09:28.863Z,100.00
2023-09-06T08:12:30.769Z,100.00
2023-09-06T08:15:30.858Z,100.00
2023-09-06T08:18:24.053Z,100.00
2023-09-06T08:21:27.903Z,100.00
2023-09-06T08:24:27.881Z,100.00
2023-09-06T08:27:27.794Z,100.00
2023-09-06T08:30:30.071Z,100.00
2023-09-06T08:33:29.893Z,100.00
2023-09-06T08:36:29.854Z,100.00
2023-09-06T08:39:30.896Z,99.50
2023-09-06T08:42:40.846Z,97.57
2023-09-06T08:45:41.836Z,94.96
2023-09-06T08:48:42.016Z,92.73
2023-09-06T08:51:43.988Z,91.24
2023-09-06T08:54:43.928Z,89.50
2023-09-06T08:57:45.908Z,87.78
2023-09-06T09:00:46.018Z,85.76
2023-09-06T09:03:50.072Z,84.23
2023-09-06T09:06:57.959Z,81.95
2023-09-06T09:10:20.912Z,80.80
2023-09-06T09:13:24.997Z,79.50
2023-09-06T09:16:27.056Z,78.60
2023-09-06T09:19:26.992Z,77.75
2023-09-06T09:22:28.002Z,76.28
2023-09-06T09:25:30.990Z,74.74
2023-09-06T09:28:31.162Z,73.51
2023-09-06T09:31:32.943Z,72.60
2023-09-06T09:34:33.018Z,72.23
2023-09-06T09:37:37.803Z,71.31
2023-09-06T09:43:42.986Z,69.41
2023-09-06T09:46:44.135Z,67.99
2023-09-06T09:49:47.116Z,67.33
2023-09-06T09:52:48.315Z,66.13
2023-09-06T09:55:55.015Z,65.02
2023-09-06T09:58:55.027Z,63.80
2023-09-06T10:01:58.187Z,62.69
2023-09-06T10:04:58.172Z,61.92
2023-09-06T10:07:58.062Z,61.28
2023-09-06T10:10:58.036Z,61.26
2023-09-06T10:13:59.143Z,60.82
2023-09-06T10:17:02.043Z,60.06
2023-09-06T10:20:03.098Z,59.80
2023-09-06T10:23:05.102Z,59.37
2023-09-06T10:26:05.099Z,59.20
2023-09-06T10:29:12.245Z,58.50
2023-09-06T10:32:18.112Z,57.96
2023-09-06T10:35:38.113Z,56.96
2023-09-06T10:38:38.148Z,56.05
2023-09-06T10:41:41.132Z,55.38
2023-09-06T10:44:41.155Z,55.29
2023-09-06T10:47:41.156Z,54.93
2023-09-06T10:50:44.203Z,54.49
2023-09-06T10:53:44.156Z,54.11
2023-09-06T10:56:47.161Z,53.93
2023-09-06T10:59:51.168Z,53.65
2023-09-06T11:02:52.327Z,53.73
2023-09-06T11:05:55.199Z,53.42
2023-09-06T11:08:55.200Z,53.33
2023-09-06T11:11:55.205Z,53.48
2023-09-06T11:14:58.194Z,53.25
2023-09-06T11:17:59.262Z,52.99
2023-09-06T11:21:06.296Z,52.36
2023-09-06T11:24:07.247Z,52.18
2023-09-06T11:27:11.248Z,51.63
2023-09-06T11:30:23.438Z,50.94
2023-09-06T11:33:23.254Z,50.45
2023-09-06T11:36:25.260Z,50.06
2023-09-06T11:39:26.300Z,49.60
2023-09-06T11:42:30.258Z,49.67
2023-09-06T11:45:30.275Z,49.64
2023-09-06T11:48:34.288Z,49.45
2023-09-06T11:51:36.289Z,49.46
2023-09-06T11:54:39.288Z,49.08
2023-09-06T11:57:39.325Z,49.03
2023-09-06T12:00:51.547Z,48.91
2023-09-06T12:03:59.363Z,48.51
2023-09-06T12:06:59.453Z,48.38
2023-09-06T12:10:01.355Z,48.46
2023-09-06T12:13:03.381Z,48.74
2023-09-06T12:16:04.347Z,48.97
2023-09-06T12:19:04.360Z,49.55
2023-09-06T12:22:04.487Z,49.75
2023-09-06T12:25:04.363Z,49.88
2023-09-06T12:28:04.355Z,50.21
2023-09-06T12:31:16.477Z,50.33
2023-09-06T12:34:18.412Z,50.27
2023-09-06T12:37:18.400Z,50.03
2023-09-06T12:40:23.438Z,49.65
2023-09-06T12:43:23.415Z,49.69
2023-09-06T12:46:25.432Z,49.71
2023-09-06T12:49:25.443Z,49.72
2023-09-06T12:52:29.423Z,49.98
2023-09-06T12:55:29.448Z,50.49
2023-09-06T12:58:29.726Z,50.81
2023-09-06T13:01:30.556Z,51.11
2023-09-06T13:04:32.586Z,51.23
2023-09-06T13:07:33.478Z,51.59
2023-09-06T13:10:33.526Z,51.68
2023-09-06T13:13:33.488Z,51.56
2023-09-06T13:16:33.536Z,51.55
2023-09-06T13:19:33.548Z,51.17
2023-09-06T13:22:33.512Z,51.00
2023-09-06T13:25:33.642Z,50.95
2023-09-06T13:28:33.545Z,50.96
2023-09-06T13:31:33.739Z,50.83
2023-09-06T13:34:34.571Z,50.94
2023-09-06T13:37:34.561Z,50.83
2023-09-06T13:40:34.620Z,50.72
2023-09-06T13:43:35.576Z,50.56
2023-09-06T13:46:35.544Z,50.28
2023-09-06T13:49:35.568Z,50.18
2023-09-06T13:52:35.584Z,49.99
2023-09-06T13:55:35.679Z,49.95
2023-09-06T13:58:38.613Z,49.88
2023-09-06T14:01:38.702Z,49.96
2023-09-06T14:04:38.717Z,49.90
2023-09-06T14:07:38.638Z,49.91
2023-09-06T14:10:38.623Z,49.91
2023-09-06T14:13:40.689Z,50.03
2023-09-06T14:16:40.658Z,50.10
2023-09-06T14:19:42.755Z,49.96
2023-09-06T14:22:42.678Z,49.90
2023-09-06T14:25:42.689Z,49.78
2023-09-06T14:28:42.664Z,49.74
2023-09-06T14:31:42.752Z,49.50
2023-09-06T14:34:43.665Z,49.41
2023-09-06T14:37:43.684Z,49.52
2023-09-06T14:40:43.674Z,49.42
2023-09-06T14:43:43.694Z,49.48
2023-09-06T14:46:43.750Z,49.33
2023-09-06T14:49:43.698Z,49.49
2023-09-06T14:52:43.712Z,49.41
2023-09-06T14:55:44.733Z,49.45
2023-09-06T14:58:44.719Z,49.42
2023-09-06T15:01:45.735Z,49.48
2023-09-06T15:04:45.711Z,49.41
2023-09-06T15:07:46.777Z,49.52
2023-09-06T15:10:46.801Z,49.63
2023-09-06T15:13:46.800Z,49.82
2023-09-06T15:16:46.871Z,49.79
2023-09-06T15:19:46.791Z,49.85
2023-09-06T15:22:47.752Z,50.00
2023-09-06T15:25:47.882Z,50.03
2023-09-06T15:28:47.804Z,50.00
2023-09-06T15:31:47.810Z,50.14
2023-09-06T15:34:48.821Z,50.31
2023-09-06T15:37:48.854Z,50.55
2023-09-06T15:40:48.821Z,50.88
2023-09-06T15:43:48.821Z,50.99
2023-09-06T15:46:49.864Z,51.32
2023-09-06T15:49:49.817Z,51.50
2023-09-06T15:52:49.842Z,51.67
2023-09-06T15:55:49.837Z,51.93
2023-09-06T15:58:49.859Z,52.16
2023-09-06T16:01:49.914Z,52.51
2023-09-06T16:04:49.897Z,52.83
2023-09-06T16:07:51.935Z,52.94
2023-09-06T16:10:51.916Z,53.21
2023-09-06T16:13:52.345Z,53.45
2023-09-06T16:16:53.042Z,53.83
2023-09-06T16:19:52.900Z,54.28
2023-09-06T16:22:53.044Z,54.52
2023-09-06T16:25:54.936Z,54.61
2023-09-06T16:28:54.920Z,54.91
2023-09-06T16:31:54.934Z,55.06
2023-09-06T16:34:54.962Z,55.62
2023-09-06T16:37:57.962Z,55.86
2023-09-06T16:40:57.974Z,56.07
2023-09-06T16:43:57.971Z,56.44
2023-09-06T16:46:58.132Z,56.75
2023-09-06T16:49:58.993Z,56.98
2023-09-06T16:52:58.981Z,57.13
2023-09-06T16:55:59.011Z,57.24
2023-09-06T16:58:59.018Z,57.79
2023-09-06T17:01:59.021Z,58.05
2023-09-06T17:05:01.138Z,58.08
2023-09-06T17:08:01.992Z,58.72
2023-09-06T17:11:04.039Z,58.57
2023-09-06T17:14:04.018Z,58.91
2023-09-06T17:17:04.080Z,59.21
2023-09-06T17:20:04.046Z,59.56
2023-09-06T17:23:05.043Z,59.83
2023-09-06T17:26:05.133Z,60.04
2023-09-06T17:29:05.085Z,60.30
2023-09-06T17:32:05.218Z,60.51
2023-09-06T17:35:05.192Z,60.85
2023-09-06T17:38:07.097Z,61.11
2023-09-06T17:41:07.091Z,61.53
2023-09-06T17:44:07.945Z,61.71
2023-09-06T17:47:10.093Z,62.00
2023-09-06T17:50:10.106Z,62.27
2023-09-06T17:53:16.104Z,62.51
2023-09-06T17:56:22.126Z,62.83
2023-09-06T17:59:25.168Z,62.96
2023-09-06T18:02:26.424Z,63.39
2023-09-06T18:05:29.558Z,63.79
2023-09-06T18:08:30.444Z,63.91
2023-09-06T18:11:31.242Z,64.41
2023-09-06T18:14:32.198Z,64.54
2023-09-06T18:17:32.245Z,64.82
2023-09-06T18:20:32.219Z,65.33
2023-09-06T18:23:32.223Z,65.56
2023-09-06T18:26:32.197Z,65.86
2023-09-06T18:29:32.200Z,66.23
2023-09-06T18:32:32.205Z,66.61
2023-09-06T18:35:34.343Z,66.83
2023-09-06T18:38:35.209Z,67.20
2023-09-06T18:41:35.700Z,67.56
2023-09-06T18:44:38.251Z,67.75
2023-09-06T18:47:38.394Z,67.97
2023-09-06T18:50:39.245Z,68.21
2023-09-06T18:53:39.251Z,68.51
2023-09-06T18:56:41.257Z,68.77
2023-09-06T18:59:41.339Z,69.07
2023-09-06T19:02:41.293Z,69.44
2023-09-06T19:05:43.440Z,69.76
2023-09-06T19:08:44.360Z,70.16
2023-09-06T19:11:44.298Z,70.48
2023-09-06T19:14:44.298Z,70.74
2023-09-06T19:17:48.368Z,71.01
2023-09-06T19:20:49.328Z,71.39
2023-09-06T19:23:49.332Z,71.60
2023-09-06T19:26:49.361Z,71.89
2023-09-06T19:29:50.325Z,72.26
2023-09-06T19:32:52.358Z,72.53
2023-09-06T19:35:52.353Z,72.85
2023-09-06T19:38:52.381Z,73.06
2023-09-06T19:41:52.413Z,73.40
2023-09-06T19:44:52.354Z,73.70
2023-09-06T19:47:53.406Z,73.92
2023-09-06T19:50:53.475Z,74.20
2023-09-06T19:53:53.392Z,74.41
2023-09-06T19:56:53.399Z,74.75
2023-09-06T19:59:53.421Z,74.98
2023-09-06T20:02:53.575Z,75.24
2023-09-06T20:05:54.455Z,75.55
2023-09-06T20:08:54.467Z,75.71
2023-09-06T20:11:55.433Z,75.91
2023-09-06T20:14:55.490Z,76.18
2023-09-06T20:17:55.647Z,76.30
2023-09-06T20:20:56.503Z,76.51
2023-09-06T20:23:57.590Z,76.51
2023-09-06T20:26:57.681Z,76.67
2023-09-06T20:29:57.502Z,76.86
2023-09-06T20:32:57.571Z,76.95
2023-09-06T20:35:57.540Z,77.12
2023-09-06T20:38:57.551Z,77.29
2023-09-06T20:41:57.529Z,77.42
2023-09-06T20:44:57.533Z,77.50
2023-09-06T20:47:57.512Z,77.77
2023-09-06T20:50:58.772Z,77.86
2023-09-06T20:54:00.528Z,78.04
2023-09-06T20:57:00.534Z,78.17
2023-09-06T21:00:00.566Z,78.38
2023-09-06T21:03:00.635Z,78.36
2023-09-06T21:06:10.560Z,78.65
2023-09-06T21:09:11.624Z,78.83
2023-09-06T21:12:11.580Z,79.05
2023-09-06T21:15:12.558Z,79.17
2023-09-06T21:18:12.689Z,79.31
2023-09-06T21:21:12.574Z,79.48
2023-09-06T21:24:12.614Z,79.55
2023-09-06T21:27:12.613Z,79.81
2023-09-06T21:30:13.624Z,79.79
2023-09-06T21:33:14.688Z,80.06
2023-09-06T21:36:14.648Z,80.47
2023-09-06T21:39:14.664Z,80.65
2023-09-06T21:42:14.722Z,80.91
2023-09-06T21:45:14.647Z,81.29
2023-09-06T21:48:14.798Z,81.65
2023-09-06T21:51:26.658Z,81.98
2023-09-06T21:54:26.650Z,82.39
2023-09-06T21:57:26.668Z,82.67
2023-09-06T22:00:28.663Z,82.93
2023-09-06T22:03:47.838Z,83.42
2023-09-06T22:07:05.686Z,83.60
2023-09-06T22:10:23.798Z,83.88
2023-09-06T22:13:42.682Z,84.20
2023-09-06T22:16:42.737Z,84.90
2023-09-06T22:19:42.747Z,85.20
2023-09-06T22:22:42.717Z,85.55
2023-09-06T22:25:42.706Z,85.85
2023-09-06T22:28:42.749Z,86.04
2023-09-06T22:31:42.804Z,86.42
2023-09-06T22:34:43.782Z,86.97
2023-09-06T22:37:44.769Z,87.21
2023-09-06T22:40:44.752Z,87.71
2023-09-06T22:43:44.783Z,88.01
2023-09-06T22:46:44.827Z,88.57
2023-09-06T22:49:44.821Z,89.05
2023-09-06T22:52:44.906Z,89.56
2023-09-06T22:55:44.802Z,90.02
2023-09-06T22:58:44.862Z,90.18
2023-09-06T23:01:44.991Z,90.36
2023-09-06T23:04:45.861Z,90.97
2023-09-06T23:07:45.827Z,91.26
2023-09-06T23:10:46.819Z,91.57
2023-09-06T23:13:46.852Z,91.91
2023-09-06T23:16:47.959Z,92.18
2023-09-06T23:19:53.856Z,92.85
2023-09-06T23:22:56.861Z,93.35
2023-09-06T23:25:59.837Z,93.87
2023-09-06T23:29:00.857Z,94.68
2023-09-06T23:32:00.942Z,95.23
2023-09-06T23:35:02.019Z,95.77
2023-09-06T23:38:05.882Z,96.33
2023-09-06T23:41:06.904Z,96.78
2023-09-06T23:44:10.878Z,97.29
2023-09-06T23:47:12.998Z,97.82
2023-09-06T23:50:12.900Z,98.12
2023-09-06T23:53:12.945Z,98.66
2023-09-06T23:56:17.903Z,99.11
2023-09-06T23:59:17.943Z,99.68
